メインページ
METAR-TAF:

METAR-TAF

空港 :

Blue River, ブリティッシュコロンビア州, カナダ

緯度: 52-08N, 経度: 119-18W, 海抜: 679m

現時点の気象観測

当レポートは5時間38分前の00:00(UTC)に作成
無風
気温 0°C
湿度 100%
気圧 1014 hPa
視程: 2.4km
高度200ftの雲は散在している
高度2000ftの曇り
小雨, 雪, 靄

METAR: CYCP 160000Z 00000KT 1 1/2SM -RASN BR SCT002 OVC020 00/00 A2994 RMK FG2SF2SC4 /S01/ LAST STFD OBS/NEXT 161400Z SLP170

時間: 21:38 (05:38 UTC)


TAF: 見つかりません

4,000以上の空港の気象観測と天気予報(METAR報とTAF報)

利用可能な観測所は地図上に黄色い丸と赤い丸で示す。

丸の上にカーソルを重ねると観測所名を参照できる。

次にクリックすると気象観測と天気予報を参照できる。

マップの切り替え:黒色「×」印の緑ボタンをクリックして拡大、「-」印の緑ボタンをクリックして縮小、緑色の三角印をクリックして隣りの地図に切り替え


METAR-TAF: